sensor_id;sensor_type;location;lat;lon;timestamp;pressure;altitude;pressure_sealevel;temperature;humidity
18755;BME280;35061;47.664;9.166;2023-02-15T00:00:09;103014.73;;;1.47;94.37
18755;BME280;35061;47.664;9.166;2023-02-15T00:02:40;103011.07;;;1.46;94.63
18755;BME280;35061;47.664;9.166;2023-02-15T00:05:08;103014.34;;;1.48;94.42
18755;BME280;35061;47.664;9.166;2023-02-15T00:07:36;103010.77;;;1.51;94.65
18755;BME280;35061;47.664;9.166;2023-02-15T00:10:04;103011.16;;;1.50;94.71
18755;BME280;35061;47.664;9.166;2023-02-15T00:12:32;103008.74;;;1.52;94.53
18755;BME280;35061;47.664;9.166;2023-02-15T00:15:00;103006.75;;;1.52;94.43
18755;BME280;35061;47.664;9.166;2023-02-15T00:17:29;103004.73;;;1.53;94.50
18755;BME280;35061;47.664;9.166;2023-02-15T00:19:56;103013.68;;;1.55;94.40
18755;BME280;35061;47.664;9.166;2023-02-15T00:22:25;103004.73;;;1.53;94.51
18755;BME280;35061;47.664;9.166;2023-02-15T00:24:53;103004.73;;;1.53;94.52
18755;BME280;35061;47.664;9.166;2023-02-15T00:27:21;103004.37;;;1.55;94.52
18755;BME280;35061;47.664;9.166;2023-02-15T00:29:49;102999.91;;;1.53;94.45
18755;BME280;35061;47.664;9.166;2023-02-15T00:32:16;102997.53;;;1.56;94.65
18755;BME280;35061;47.664;9.166;2023-02-15T00:34:44;102991.45;;;1.53;94.77
18755;BME280;35061;47.664;9.166;2023-02-15T00:37:12;102995.89;;;1.55;94.62
18755;BME280;35061;47.664;9.166;2023-02-15T00:39:39;102994.72;;;1.56;94.67
18755;BME280;35061;47.664;9.166;2023-02-15T00:42:07;102997.10;;;1.53;94.70
18755;BME280;35061;47.664;9.166;2023-02-15T00:44:35;102997.46;;;1.52;94.91
18755;BME280;35061;47.664;9.166;2023-02-15T00:47:03;103003.94;;;1.52;94.61
18755;BME280;35061;47.664;9.166;2023-02-15T00:49:30;102996.25;;;1.53;94.68
18755;BME280;35061;47.664;9.166;2023-02-15T00:51:58;102996.65;;;1.51;94.55
18755;BME280;35061;47.664;9.166;2023-02-15T00:54:26;102993.02;;;1.51;94.48
18755;BME280;35061;47.664;9.166;2023-02-15T00:56:54;102986.05;;;1.45;94.59
18755;BME280;35061;47.664;9.166;2023-02-15T00:59:21;102982.84;;;1.46;94.83
18755;BME280;35061;47.664;9.166;2023-02-15T01:01:49;102994.59;;;1.48;94.70
18755;BME280;35061;47.664;9.166;2023-02-15T01:04:17;102985.73;;;1.50;94.79
18755;BME280;35061;47.664;9.166;2023-02-15T01:06:45;102991.02;;;1.51;94.53
18755;BME280;35061;47.664;9.166;2023-02-15T01:09:12;102991.80;;;1.52;94.45
18755;BME280;35061;47.664;9.166;2023-02-15T01:11:41;102988.57;;;1.50;94.58
18755;BME280;35061;47.664;9.166;2023-02-15T01:14:08;102984.55;;;1.51;94.48
18755;BME280;35061;47.664;9.166;2023-02-15T01:16:36;102990.23;;;1.55;94.64
18755;BME280;35061;47.664;9.166;2023-02-15T01:19:04;102991.02;;;1.51;94.43
18755;BME280;35061;47.664;9.166;2023-02-15T01:21:31;102998.54;;;1.44;94.60
18755;BME280;35061;47.664;9.166;2023-02-15T01:24:01;102995.66;;;1.40;94.57
18755;BME280;35061;47.664;9.166;2023-02-15T01:26:30;102995.14;;;1.34;94.79
18755;BME280;35061;47.664;9.166;2023-02-15T01:28:58;102998.34;;;1.33;94.95
18755;BME280;35061;47.664;9.166;2023-02-15T01:31:25;102995.08;;;1.31;95.01
18755;BME280;35061;47.664;9.166;2023-02-15T01:33:53;102991.88;;;1.32;95.45
18755;BME280;35061;47.664;9.166;2023-02-15T01:36:21;102989.45;;;1.31;95.42
18755;BME280;35061;47.664;9.166;2023-02-15T01:38:49;102998.67;;;1.28;95.56
18755;BME280;35061;47.664;9.166;2023-02-15T01:41:16;102993.84;;;1.28;95.70
18755;BME280;35061;47.664;9.166;2023-02-15T01:43:53;102997.01;;;1.27;95.70
18755;BME280;35061;47.664;9.166;2023-02-15T01:46:36;102990.20;;;1.28;95.96
18755;BME280;35061;47.664;9.166;2023-02-15T01:49:15;102988.99;;;1.29;95.49
18755;BME280;35061;47.664;9.166;2023-02-15T01:51:45;102989.45;;;1.31;95.60
18755;BME280;35061;47.664;9.166;2023-02-15T01:54:25;102983.11;;;1.37;95.68
18755;BME280;35061;47.664;9.166;2023-02-15T01:57:01;102988.83;;;1.41;95.65
18755;BME280;35061;47.664;9.166;2023-02-15T01:59:31;102994.06;;;1.43;95.12
18755;BME280;35061;47.664;9.166;2023-02-15T02:02:02;102984.02;;;1.45;95.29
18755;BME280;35061;47.664;9.166;2023-02-15T02:04:38;102973.49;;;1.42;95.08
18755;BME280;35061;47.664;9.166;2023-02-15T02:07:08;102975.95;;;1.44;95.49
18755;BME280;35061;47.664;9.166;2023-02-15T02:09:37;102985.37;;;1.51;95.45
18755;BME280;35061;47.664;9.166;2023-02-15T02:12:05;102966.86;;;1.54;94.98
18755;BME280;35061;47.664;9.166;2023-02-15T02:14:34;102975.69;;;1.52;94.75
18755;BME280;35061;47.664;9.166;2023-02-15T02:17:11;102968.43;;;1.51;94.97
18755;BME280;35061;47.664;9.166;2023-02-15T02:33:50;102981.41;;;1.56;94.55
18755;BME280;35061;47.664;9.166;2023-02-15T02:39:32;102980.43;;;1.45;94.62
18755;BME280;35061;47.664;9.166;2023-02-15T02:42:07;102977.45;;;1.37;94.58
18755;BME280;35061;47.664;9.166;2023-02-15T02:44:42;102980.98;;;1.31;94.49
18755;BME280;35061;47.664;9.166;2023-02-15T02:47:21;102987.36;;;1.28;94.46
18755;BME280;35061;47.664;9.166;2023-02-15T02:50:04;102982.52;;;1.28;94.95
18755;BME280;35061;47.664;9.166;2023-02-15T02:52:53;102981.73;;;1.28;94.87
18755;BME280;35061;47.664;9.166;2023-02-15T02:55:22;102975.95;;;1.20;94.87
18755;BME280;35061;47.664;9.166;2023-02-15T03:00:32;102981.77;;;1.08;94.73
18755;BME280;35061;47.664;9.166;2023-02-15T03:03:06;102980.79;;;1.00;95.07
18755;BME280;35061;47.664;9.166;2023-02-15T03:05:40;102977.52;;;0.98;95.40
18755;BME280;35061;47.664;9.166;2023-02-15T03:08:09;102976.73;;;0.97;95.34
18755;BME280;35061;47.664;9.166;2023-02-15T03:10:39;102971.89;;;0.98;95.64
18755;BME280;35061;47.664;9.166;2023-02-15T03:13:08;102982.81;;;1.00;95.55
18755;BME280;35061;47.664;9.166;2023-02-15T03:15:41;102977.62;;;1.02;95.79
18755;BME280;35061;47.664;9.166;2023-02-15T03:18:33;102972.38;;;1.04;95.52
18755;BME280;35061;47.664;9.166;2023-02-15T03:21:03;102972.32;;;1.00;95.80
18755;BME280;35061;47.664;9.166;2023-02-15T03:23:34;102969.96;;;1.02;95.87
18755;BME280;35061;47.664;9.166;2023-02-15T03:26:05;102976.47;;;1.06;95.84
18755;BME280;35061;47.664;9.166;2023-02-15T03:28:44;102976.18;;;1.11;95.64
18755;BME280;35061;47.664;9.166;2023-02-15T03:31:14;102977.35;;;1.10;95.69
18755;BME280;35061;47.664;9.166;2023-02-15T03:33:54;102968.52;;;1.12;95.40
18755;BME280;35061;47.664;9.166;2023-02-15T03:36:44;102972.22;;;1.16;95.47
18755;BME280;35061;47.664;9.166;2023-02-15T03:39:30;102976.30;;;1.19;95.41
18755;BME280;35061;47.664;9.166;2023-02-15T03:42:19;102975.78;;;1.13;95.27
18755;BME280;35061;47.664;9.166;2023-02-15T03:44:57;102981.02;;;1.11;95.33
18755;BME280;35061;47.664;9.166;2023-02-15T03:47:32;102980.66;;;1.13;95.57
18755;BME280;35061;47.664;9.166;2023-02-15T03:52:54;102979.74;;;1.08;95.46
18755;BME280;35061;47.664;9.166;2023-02-15T03:55:22;102981.38;;;1.09;95.52
18755;BME280;35061;47.664;9.166;2023-02-15T03:57:50;102977.16;;;1.00;95.76
18755;BME280;35061;47.664;9.166;2023-02-15T04:00:40;102983.56;;;0.96;95.84
18755;BME280;35061;47.664;9.166;2023-02-15T04:03:34;102985.92;;;0.94;95.86
18755;BME280;35061;47.664;9.166;2023-02-15T04:06:04;102983.50;;;0.93;95.74
18755;BME280;35061;47.664;9.166;2023-02-15T04:08:32;102983.50;;;0.93;95.81
18755;BME280;35061;47.664;9.166;2023-02-15T04:11:18;102979.05;;;0.92;95.95
18755;BME280;35061;47.664;9.166;2023-02-15T04:13:46;102979.84;;;0.92;95.72
18755;BME280;35061;47.664;9.166;2023-02-15T04:16:14;102979.77;;;0.89;95.64
18755;BME280;35061;47.664;9.166;2023-02-15T04:18:42;102989.88;;;0.90;96.08
18755;BME280;35061;47.664;9.166;2023-02-15T04:21:30;102976.14;;;0.88;95.62
18755;BME280;35061;47.664;9.166;2023-02-15T04:24:17;102986.90;;;0.82;96.11
18755;BME280;35061;47.664;9.166;2023-02-15T04:27:04;102986.02;;;0.78;96.54
18755;BME280;35061;47.664;9.166;2023-02-15T04:29:33;102985.73;;;0.83;96.05
18755;BME280;35061;47.664;9.166;2023-02-15T04:32:01;102986.41;;;0.77;96.14
18755;BME280;35061;47.664;9.166;2023-02-15T04:34:29;102990.47;;;0.79;96.03
18755;BME280;35061;47.664;9.166;2023-02-15T04:36:57;102989.65;;;0.79;95.80
18755;BME280;35061;47.664;9.166;2023-02-15T04:39:24;102989.65;;;0.79;96.29
18755;BME280;35061;47.664;9.166;2023-02-15T04:41:52;102989.75;;;0.82;95.78
18755;BME280;35061;47.664;9.166;2023-02-15T04:44:20;102984.09;;;0.82;95.83
18755;BME280;35061;47.664;9.166;2023-02-15T04:46:48;102986.90;;;0.82;95.90
18755;BME280;35061;47.664;9.166;2023-02-15T04:49:15;102983.27;;;0.82;96.16
18755;BME280;35061;47.664;9.166;2023-02-15T04:51:43;102978.83;;;0.81;96.21
18755;BME280;35061;47.664;9.166;2023-02-15T04:54:11;102979.64;;;0.81;96.21
18755;BME280;35061;47.664;9.166;2023-02-15T04:56:39;102984.55;;;0.85;96.11
18755;BME280;35061;47.664;9.166;2023-02-15T04:59:08;102983.86;;;0.91;96.28
18755;BME280;35061;47.664;9.166;2023-02-15T05:01:37;102979.84;;;0.92;95.99
18755;BME280;35061;47.664;9.166;2023-02-15T05:04:04;102971.30;;;0.89;95.57
18755;BME280;35061;47.664;9.166;2023-02-15T05:06:33;102967.34;;;0.93;96.00
18755;BME280;35061;47.664;9.166;2023-02-15T05:09:01;102983.11;;;0.94;95.84
18755;BME280;35061;47.664;9.166;2023-02-15T05:11:29;102981.87;;;0.92;95.58
18755;BME280;35061;47.664;9.166;2023-02-15T05:13:56;102976.93;;;0.89;96.02
18755;BME280;35061;47.664;9.166;2023-02-15T05:16:24;102975.39;;;0.91;96.23
18755;BME280;35061;47.664;9.166;2023-02-15T05:18:53;102977.42;;;0.91;96.13
18755;BME280;35061;47.664;9.166;2023-02-15T05:21:20;102975.39;;;0.91;96.06
18755;BME280;35061;47.664;9.166;2023-02-15T05:23:48;102975.91;;;0.97;96.36
18755;BME280;35061;47.664;9.166;2023-02-15T05:26:19;102979.91;;;0.96;95.50
18755;BME280;35061;47.664;9.166;2023-02-15T05:29:06;102972.22;;;0.93;95.80
18755;BME280;35061;47.664;9.166;2023-02-15T05:31:35;102975.81;;;0.93;95.56
18755;BME280;35061;47.664;9.166;2023-02-15T05:34:03;102971.30;;;0.89;95.43
18755;BME280;35061;47.664;9.166;2023-02-15T05:36:31;102985.40;;;0.89;96.10
18755;BME280;35061;47.664;9.166;2023-02-15T05:38:58;102969.60;;;0.84;95.85
18755;BME280;35061;47.664;9.166;2023-02-15T05:41:26;102973.33;;;0.88;95.89
18755;BME280;35061;47.664;9.166;2023-02-15T05:43:55;102971.30;;;0.89;95.76
18755;BME280;35061;47.664;9.166;2023-02-15T05:46:23;102973.82;;;0.94;95.93
18755;BME280;35061;47.664;9.166;2023-02-15T05:48:51;102965.65;;;0.89;95.56
18755;BME280;35061;47.664;9.166;2023-02-15T05:51:19;102981.12;;;0.95;96.20
18755;BME280;35061;47.664;9.166;2023-02-15T05:53:47;102974.64;;;0.94;95.71
18755;BME280;35061;47.664;9.166;2023-02-15T05:56:15;102978.56;;;0.90;95.73
18755;BME280;35061;47.664;9.166;2023-02-15T05:58:42;102977.02;;;0.92;95.84
18755;BME280;35061;47.664;9.166;2023-02-15T06:01:12;102978.73;;;0.97;95.67
18755;BME280;35061;47.664;9.166;2023-02-15T06:03:40;102979.15;;;0.99;95.78
18755;BME280;35061;47.664;9.166;2023-02-15T06:06:08;102977.26;;;1.03;95.80
18755;BME280;35061;47.664;9.166;2023-02-15T06:08:37;102983.24;;;1.02;95.44
18755;BME280;35061;47.664;9.166;2023-02-15T06:11:05;102984.74;;;0.95;95.61
18755;BME280;35061;47.664;9.166;2023-02-15T06:13:34;102988.02;;;0.97;95.52
18755;BME280;35061;47.664;9.166;2023-02-15T06:16:05;102989.23;;;0.96;95.33
18755;BME280;35061;47.664;9.166;2023-02-15T06:18:33;102995.14;;;0.91;95.39
18755;BME280;35061;47.664;9.166;2023-02-15T06:21:01;102990.17;;;0.85;95.36
18755;BME280;35061;47.664;9.166;2023-02-15T06:23:29;102996.19;;;0.83;95.82
18755;BME280;35061;47.664;9.166;2023-02-15T06:25:57;102990.47;;;0.79;95.53
18755;BME280;35061;47.664;9.166;2023-02-15T06:28:24;102993.67;;;0.78;95.63
18755;BME280;35061;47.664;9.166;2023-02-15T06:30:53;102991.61;;;0.75;95.61
18755;BME280;35061;47.664;9.166;2023-02-15T06:33:21;102995.24;;;0.75;95.82
18755;BME280;35061;47.664;9.166;2023-02-15T06:35:49;102998.41;;;0.74;95.77
18755;BME280;35061;47.664;9.166;2023-02-15T06:38:17;102994.42;;;0.75;95.71
18755;BME280;35061;47.664;9.166;2023-02-15T06:40:45;103000.08;;;0.75;95.59
18755;BME280;35061;47.664;9.166;2023-02-15T06:43:12;103003.61;;;0.72;95.69
18755;BME280;35061;47.664;9.166;2023-02-15T06:45:41;103001.45;;;0.65;95.89
18755;BME280;35061;47.664;9.166;2023-02-15T06:48:09;103007.11;;;0.65;95.75
18755;BME280;35061;47.664;9.166;2023-02-15T06:50:38;103007.93;;;0.65;95.72
18755;BME280;35061;47.664;9.166;2023-02-15T06:53:06;103003.91;;;0.66;95.94
18755;BME280;35061;47.664;9.166;2023-02-15T06:55:34;103004.27;;;0.65;95.68
18755;BME280;35061;47.664;9.166;2023-02-15T06:58:01;103005.12;;;0.65;96.06
18755;BME280;35061;47.664;9.166;2023-02-15T07:00:29;103005.54;;;0.67;95.88
18755;BME280;35061;47.664;9.166;2023-02-15T07:02:58;103008.81;;;0.69;95.95
18755;BME280;35061;47.664;9.166;2023-02-15T07:05:26;103007.63;;;0.71;95.74
18755;BME280;35061;47.664;9.166;2023-02-15T07:07:58;103014.20;;;0.78;95.82
18755;BME280;35061;47.664;9.166;2023-02-15T07:10:27;103011.39;;;0.78;95.81
18755;BME280;35061;47.664;9.166;2023-02-15T07:12:55;103018.03;;;0.86;95.89
18755;BME280;35061;47.664;9.166;2023-02-15T07:15:23;103021.40;;;0.95;95.89
18755;BME280;35061;47.664;9.166;2023-02-15T07:17:51;103023.20;;;1.04;95.67
18755;BME280;35061;47.664;9.166;2023-02-15T07:20:21;103018.00;;;1.06;95.52
18755;BME280;35061;47.664;9.166;2023-02-15T07:22:50;103022.91;;;1.09;95.24
18755;BME280;35061;47.664;9.166;2023-02-15T07:25:18;103020.09;;;1.09;95.41
18755;BME280;35061;47.664;9.166;2023-02-15T07:27:46;103018.98;;;1.14;95.23
18755;BME280;35061;47.664;9.166;2023-02-15T07:30:16;103024.54;;;1.10;94.68
18755;BME280;35061;47.664;9.166;2023-02-15T07:32:44;103018.82;;;1.06;94.48
18755;BME280;35061;47.664;9.166;2023-02-15T07:35:32;103027.05;;;0.95;94.39
18755;BME280;35061;47.664;9.166;2023-02-15T07:38:00;103032.84;;;0.83;95.18
18755;BME280;35061;47.664;9.166;2023-02-15T07:40:28;103029.25;;;0.82;95.69
18755;BME280;35061;47.664;9.166;2023-02-15T07:42:57;103034.48;;;1.04;96.52
18755;BME280;35061;47.664;9.166;2023-02-15T07:45:26;103025.36;;;1.10;95.64
18755;BME280;35061;47.664;9.166;2023-02-15T07:47:54;103025.12;;;1.19;95.14
18755;BME280;35061;47.664;9.166;2023-02-15T07:50:22;103017.90;;;1.22;94.67
18755;BME280;35061;47.664;9.166;2023-02-15T07:52:50;103009.89;;;1.24;94.67
18755;BME280;35061;47.664;9.166;2023-02-15T07:55:18;103011.46;;;1.21;94.38
18755;BME280;35061;47.664;9.166;2023-02-15T07:57:48;103003.77;;;1.22;94.64
18755;BME280;35061;47.664;9.166;2023-02-15T08:00:18;103002.53;;;1.19;94.48
18755;BME280;35061;47.664;9.166;2023-02-15T08:02:48;103014.70;;;1.23;94.74
18755;BME280;35061;47.664;9.166;2023-02-15T08:05:36;103009.89;;;1.24;94.64
18755;BME280;35061;47.664;9.166;2023-02-15T08:08:04;103010.94;;;1.16;94.34
18755;BME280;35061;47.664;9.166;2023-02-15T08:10:33;103004.04;;;1.13;94.23
18755;BME280;35061;47.664;9.166;2023-02-15T08:13:19;103008.42;;;1.10;94.31
18755;BME280;35061;47.664;9.166;2023-02-15T08:15:48;102995.11;;;1.11;94.55
18755;BME280;35061;47.664;9.166;2023-02-15T08:18:16;103002.47;;;1.16;94.63
18755;BME280;35061;47.664;9.166;2023-02-15T08:20:49;103004.52;;;1.19;94.60
18755;BME280;35061;47.664;9.166;2023-02-15T08:23:17;103010.19;;;1.19;94.42
18755;BME280;35061;47.664;9.166;2023-02-15T08:25:44;102998.22;;;1.25;94.63
18755;BME280;35061;47.664;9.166;2023-02-15T08:28:12;103008.68;;;1.25;94.36
18755;BME280;35061;47.664;9.166;2023-02-15T08:30:40;102998.67;;;1.28;94.41
18755;BME280;35061;47.664;9.166;2023-02-15T08:33:08;103002.30;;;1.28;94.62
18755;BME280;35061;47.664;9.166;2023-02-15T08:35:37;102995.53;;;1.33;94.37
18755;BME280;35061;47.664;9.166;2023-02-15T08:38:04;102997.23;;;1.37;94.30
18755;BME280;35061;47.664;9.166;2023-02-15T08:40:32;102998.84;;;1.38;93.92
18755;BME280;35061;47.664;9.166;2023-02-15T08:43:00;102987.20;;;1.40;94.21
18755;BME280;35061;47.664;9.166;2023-02-15T08:45:27;102993.28;;;1.42;94.05
18755;BME280;35061;47.664;9.166;2023-02-15T08:47:55;102993.70;;;1.44;94.22
18755;BME280;35061;47.664;9.166;2023-02-15T08:50:23;102994.12;;;1.46;94.17
18755;BME280;35061;47.664;9.166;2023-02-15T08:52:50;102995.77;;;1.47;93.80
18755;BME280;35061;47.664;9.166;2023-02-15T08:55:18;102999.85;;;1.50;94.15
18755;BME280;35061;47.664;9.166;2023-02-15T08:57:46;102993.51;;;1.57;94.06
18755;BME280;35061;47.664;9.166;2023-02-15T09:00:15;102994.33;;;1.57;93.77
18755;BME280;35061;47.664;9.166;2023-02-15T09:02:44;102995.14;;;1.58;93.91
18755;BME280;35061;47.664;9.166;2023-02-15T09:05:12;102991.58;;;1.61;94.07
18755;BME280;35061;47.664;9.166;2023-02-15T09:07:40;102987.49;;;1.58;93.70
18755;BME280;35061;47.664;9.166;2023-02-15T09:10:08;102985.17;;;1.64;94.03
18755;BME280;35061;47.664;9.166;2023-02-15T09:12:37;102989.26;;;1.66;93.61
18755;BME280;35061;47.664;9.166;2023-02-15T09:15:05;102984.81;;;1.65;93.57
18755;BME280;35061;47.664;9.166;2023-02-15T09:17:33;102987.23;;;1.67;93.67
18755;BME280;35061;47.664;9.166;2023-02-15T09:20:00;102985.66;;;1.70;93.48
18755;BME280;35061;47.664;9.166;2023-02-15T09:22:28;102987.30;;;1.71;93.40
18755;BME280;35061;47.664;9.166;2023-02-15T09:24:58;102992.95;;;1.71;93.28
18755;BME280;35061;47.664;9.166;2023-02-15T09:27:26;102987.72;;;1.73;93.35
18755;BME280;35061;47.664;9.166;2023-02-15T09:29:54;102973.52;;;1.69;92.99
18755;BME280;35061;47.664;9.166;2023-02-15T09:32:21;102988.54;;;1.73;93.30
18755;BME280;35061;47.664;9.166;2023-02-15T09:34:49;102981.70;;;1.74;93.10
18755;BME280;35061;47.664;9.166;2023-02-15T09:37:17;102984.16;;;1.76;93.07
18755;BME280;35061;47.664;9.166;2023-02-15T09:39:44;102983.34;;;1.75;92.84
18755;BME280;35061;47.664;9.166;2023-02-15T09:48:30;102985.01;;;1.80;92.77
18755;BME280;35061;47.664;9.166;2023-02-15T09:57:06;102979.09;;;1.89;91.99
18755;BME280;35061;47.664;9.166;2023-02-15T10:14:02;102963.72;;;2.13;92.74
18755;BME280;35061;47.664;9.166;2023-02-15T10:26:20;102956.42;;;2.43;91.93
18755;BME280;35061;47.664;9.166;2023-02-15T10:29:08;102954.04;;;2.45;91.65
18755;BME280;35061;47.664;9.166;2023-02-15T10:31:48;102947.99;;;2.46;91.20
18755;BME280;35061;47.664;9.166;2023-02-15T10:34:19;102949.30;;;2.53;91.57
18755;BME280;35061;47.664;9.166;2023-02-15T10:37:31;102951.78;;;2.58;91.39
18755;BME280;35061;47.664;9.166;2023-02-15T10:40:12;102945.73;;;2.59;90.66
18755;BME280;35061;47.664;9.166;2023-02-15T10:43:23;102939.36;;;2.66;90.79
18755;BME280;35061;47.664;9.166;2023-02-15T10:46:08;102930.07;;;2.69;89.51
18755;BME280;35061;47.664;9.166;2023-02-15T10:48:43;102926.08;;;2.74;90.47
18755;BME280;35061;47.664;9.166;2023-02-15T11:00:16;102918.49;;;2.82;89.59
18755;BME280;35061;47.664;9.166;2023-02-15T11:03:22;102915.68;;;2.82;88.91
18755;BME280;35061;47.664;9.166;2023-02-15T11:06:12;102916.04;;;2.80;88.82
18755;BME280;35061;47.664;9.166;2023-02-15T11:08:57;102915.23;;;2.79;89.02
18755;BME280;35061;47.664;9.166;2023-02-15T11:11:37;102905.94;;;2.79;88.21
18755;BME280;35061;47.664;9.166;2023-02-15T11:14:18;102903.58;;;2.85;89.09
18755;BME280;35061;47.664;9.166;2023-02-15T11:16:52;102901.66;;;2.96;89.08
18755;BME280;35061;47.664;9.166;2023-02-15T11:19:28;102887.49;;;2.96;87.89
18755;BME280;35061;47.664;9.166;2023-02-15T11:22:02;102889.59;;;3.03;88.12
18755;BME280;35061;47.664;9.166;2023-02-15T11:24:36;102890.86;;;3.09;88.52
18755;BME280;35061;47.664;9.166;2023-02-15T11:32:35;102869.84;;;3.10;87.43
18755;BME280;35061;47.664;9.166;2023-02-15T11:35:21;102874.64;;;3.06;87.01
18755;BME280;35061;47.664;9.166;2023-02-15T11:46:07;102849.79;;;3.30;86.90
18755;BME280;35061;47.664;9.166;2023-02-15T11:48:38;102855.02;;;3.31;86.83
18755;BME280;35061;47.664;9.166;2023-02-15T11:51:12;102846.16;;;3.33;86.60
18755;BME280;35061;47.664;9.166;2023-02-15T11:53:41;102849.40;;;3.35;86.37
18755;BME280;35061;47.664;9.166;2023-02-15T11:56:22;102843.38;;;3.40;86.28
18755;BME280;35061;47.664;9.166;2023-02-15T11:59:06;102845.41;;;3.43;85.84
18755;BME280;35061;47.664;9.166;2023-02-15T12:01:42;102844.69;;;3.54;86.15
18755;BME280;35061;47.664;9.166;2023-02-15T12:04:20;102832.95;;;3.59;86.27
18755;BME280;35061;47.664;9.166;2023-02-15T12:06:57;102832.63;;;3.64;86.29
18755;BME280;35061;47.664;9.166;2023-02-15T12:09:48;102833.44;;;3.68;85.99
18755;BME280;35061;47.664;9.166;2023-02-15T12:14:59;102832.63;;;3.68;85.53
18755;BME280;35061;47.664;9.166;2023-02-15T12:17:33;102830.59;;;3.68;85.56
18755;BME280;35061;47.664;9.166;2023-02-15T12:20:06;102833.08;;;3.73;85.27
18755;BME280;35061;47.664;9.166;2023-02-15T12:22:36;102831.48;;;3.83;85.34
18755;BME280;35061;47.664;9.166;2023-02-15T12:25:21;102823.83;;;3.91;85.20
18755;BME280;35061;47.664;9.166;2023-02-15T12:27:50;102818.20;;;3.98;84.73
18755;BME280;35061;47.664;9.166;2023-02-15T12:30:37;102814.60;;;4.09;85.03
18755;BME280;35061;47.664;9.166;2023-02-15T12:33:44;102812.58;;;4.16;84.13
18755;BME280;35061;47.664;9.166;2023-02-15T12:36:29;102804.53;;;4.29;83.99
18755;BME280;35061;47.664;9.166;2023-02-15T12:42:14;102797.27;;;4.43;83.53
18755;BME280;35061;47.664;9.166;2023-02-15T12:44:34;102798.91;;;4.47;83.53
18755;BME280;35061;47.664;9.166;2023-02-15T12:47:04;102794.04;;;4.55;83.43
18755;BME280;35061;47.664;9.166;2023-02-15T12:49:34;102790.02;;;4.53;83.18
18755;BME280;35061;47.664;9.166;2023-02-15T12:52:05;102789.16;;;4.52;82.44
18755;BME280;35061;47.664;9.166;2023-02-15T12:54:40;102777.03;;;4.48;82.12
18755;BME280;35061;47.664;9.166;2023-02-15T13:02:36;102774.97;;;4.34;82.59
18755;BME280;35061;47.664;9.166;2023-02-15T13:05:37;102769.67;;;4.32;82.30
18755;BME280;35061;47.664;9.166;2023-02-15T13:08:17;102772.52;;;4.32;82.46
18755;BME280;35061;47.664;9.166;2023-02-15T13:11:04;102766.86;;;4.36;82.50
18755;BME280;35061;47.664;9.166;2023-02-15T13:13:54;102765.66;;;4.41;82.51
18755;BME280;35061;47.664;9.166;2023-02-15T13:16:43;102766.05;;;4.43;82.65
18755;BME280;35061;47.664;9.166;2023-02-15T13:21:46;102752.67;;;4.40;81.62
18755;BME280;35061;47.664;9.166;2023-02-15T13:24:25;102747.02;;;4.40;82.47
18755;BME280;35061;47.664;9.166;2023-02-15T13:26:56;102735.63;;;4.36;82.01
18755;BME280;35061;47.664;9.166;2023-02-15T13:29:43;102730.37;;;4.35;82.07
18755;BME280;35061;47.664;9.166;2023-02-15T13:34:49;102731.58;;;4.33;81.83
18755;BME280;35061;47.664;9.166;2023-02-15T13:40:18;102725.53;;;4.39;81.89
18755;BME280;35061;47.664;9.166;2023-02-15T13:48:05;102716.60;;;4.29;82.17
18755;BME280;35061;47.664;9.166;2023-02-15T13:53:24;102711.34;;;4.31;81.85
18755;BME280;35061;47.664;9.166;2023-02-15T13:59:02;102703.20;;;4.30;82.20
18755;BME280;35061;47.664;9.166;2023-02-15T14:04:52;102697.96;;;4.32;82.35
18755;BME280;35061;47.664;9.166;2023-02-15T14:12:49;102691.49;;;4.35;82.43
18755;BME280;35061;47.664;9.166;2023-02-15T14:15:42;102696.33;;;4.38;82.41
18755;BME280;35061;47.664;9.166;2023-02-15T14:19:19;102703.23;;;4.37;82.26
18755;BME280;35061;47.664;9.166;2023-02-15T14:21:35;102701.20;;;4.30;82.49
18755;BME280;35061;47.664;9.166;2023-02-15T14:30:10;102708.85;;;4.12;82.69
18755;BME280;35061;47.664;9.166;2023-02-15T14:36:01;102709.64;;;3.94;82.84
18755;BME280;35061;47.664;9.166;2023-02-15T14:41:29;102708.39;;;3.84;83.13
18755;BME280;35061;47.664;9.166;2023-02-15T14:44:14;102703.91;;;3.83;83.14
18755;BME280;35061;47.664;9.166;2023-02-15T14:46:55;102699.04;;;3.76;83.21
18755;BME280;35061;47.664;9.166;2023-02-15T14:49:32;102695.80;;;3.74;83.63
18755;BME280;35061;47.664;9.166;2023-02-15T14:52:04;102702.67;;;3.66;84.13
18755;BME280;35061;47.664;9.166;2023-02-15T15:02:50;102692.77;;;3.24;85.95
18755;BME280;35061;47.664;9.166;2023-02-15T15:05:34;102694.73;;;3.16;86.62
18755;BME280;35061;47.664;9.166;2023-02-15T15:08:04;102700.35;;;3.09;87.23
18755;BME280;35061;47.664;9.166;2023-02-15T15:10:39;102701.10;;;2.98;88.38
18755;BME280;35061;47.664;9.166;2023-02-15T15:13:37;102706.34;;;2.96;88.55
18755;BME280;35061;47.664;9.166;2023-02-15T15:16:27;102703.85;;;2.87;89.31
18755;BME280;35061;47.664;9.166;2023-02-15T15:18:56;102701.79;;;2.84;89.51
18755;BME280;35061;47.664;9.166;2023-02-15T15:27:41;102695.31;;;2.80;89.92
18755;BME280;35061;47.664;9.166;2023-02-15T15:33:35;102697.73;;;2.78;89.74
18755;BME280;35061;47.664;9.166;2023-02-15T15:35:55;102692.44;;;2.76;90.17
18755;BME280;35061;47.664;9.166;2023-02-15T15:38:45;102690.05;;;2.82;90.06
18755;BME280;35061;47.664;9.166;2023-02-15T15:41:42;102693.71;;;2.83;89.96
18755;BME280;35061;47.664;9.166;2023-02-15T15:49:59;102695.22;;;2.65;90.32
18755;BME280;35061;47.664;9.166;2023-02-15T15:52:28;102695.22;;;2.65;90.34
18755;BME280;35061;47.664;9.166;2023-02-15T15:55:02;102697.15;;;2.58;90.82
18755;BME280;35061;47.664;9.166;2023-02-15T15:57:37;102706.40;;;2.51;91.27
18755;BME280;35061;47.664;9.166;2023-02-15T16:00:46;102709.96;;;2.44;91.68
18755;BME280;35061;47.664;9.166;2023-02-15T16:03:20;102712.84;;;2.48;91.79
18755;BME280;35061;47.664;9.166;2023-02-15T16:05:49;102717.65;;;2.44;91.52